Aviation Digital Data Service (ADDS)

Output produced by TAFs form (0916 UTC 29 August 2015)
found at http://www.aviationweather.gov/adds/tafs/
 
KPOU 290520Z 2906/3006 00000KT P6SM SCT060 
     FM291200 VRB03KT P6SM SCT250 
     FM291700 23005KT P6SM FEW060 SCT200 
     FM300100 VRB03KT P6SM SCT120 BKN200